Time;durP1;ratioP1;P1;durP2;ratioP2;P2;SDS_P1;SDS_P2;PMS_P1;PMS_P2;Temp;Humidity;BMP_temperature;BMP_pressure;BME280_temperature;BME280_humidity;BME280_pressure;Samples;Min_cycle;Max_cycle;Signal;HPM_P1;HPM_P2
2023/01/07 00:00:51;;;;;;;115.93;36.67;;;;;;;;;;4957938;28;20405;-41
2023/01/07 00:03:18;;;;;;;136.05;39.33;;;;;;;;;;4962368;28;20047;-41
2023/01/07 00:05:44;;;;;;;107.25;36.30;;;;;;;;;;4962119;28;20043;-41
2023/01/07 00:08:11;;;;;;;200.45;44.45;;;;;;;;;;4956582;28;20154;-42
2023/01/07 00:10:37;;;;;;;139.07;39.50;;;;;;;;;;4953950;28;20047;-42
2023/01/07 00:13:04;;;;;;;128.00;40.03;;;;;;;;;;4958184;28;20067;-42
2023/01/07 00:15:30;;;;;;;135.35;39.53;;;;;;;;;;4958866;28;20035;-42
2023/01/07 00:17:56;;;;;;;139.05;36.92;;;;;;;;;;4957043;28;20050;-42
2023/01/07 00:20:23;;;;;;;137.48;37.50;;;;;;;;;;4955728;28;20042;-41
2023/01/07 00:22:50;;;;;;;129.73;40.72;;;;;;;;;;4958139;28;20067;-44
2023/01/07 00:25:16;;;;;;;136.57;42.72;;;;;;;;;;4955389;28;20047;-43
2023/01/07 00:27:43;;;;;;;125.18;40.85;;;;;;;;;;4958075;28;20126;-42
2023/01/07 00:30:10;;;;;;;182.38;48.13;;;;;;;;;;4959054;28;20047;-42
2023/01/07 00:35:22;;;;;;;125.97;40.17;;;;;;;;;;4962485;28;20433;-42
2023/01/07 00:37:50;;;;;;;123.47;41.55;;;;;;;;;;4954667;28;20071;-43
2023/01/07 00:40:17;;;;;;;177.02;47.25;;;;;;;;;;4959260;28;20042;-43
2023/01/07 00:42:53;;;;;;;119.03;39.88;;;;;;;;;;4958807;28;20066;-44
2023/01/07 00:45:21;;;;;;;169.02;43.65;;;;;;;;;;4958043;28;20035;-43
2023/01/07 00:47:47;;;;;;;146.00;42.38;;;;;;;;;;4956976;28;20485;-42
2023/01/07 00:50:14;;;;;;;107.75;37.53;;;;;;;;;;4957405;28;20065;-42
2023/01/07 00:52:40;;;;;;;166.30;41.42;;;;;;;;;;4966327;28;20106;-44
2023/01/07 00:55:09;;;;;;;129.13;40.20;;;;;;;;;;4963424;28;20046;-43
2023/01/07 00:57:36;;;;;;;114.40;37.75;;;;;;;;;;4960596;28;20050;-44
2023/01/07 01:00:03;;;;;;;146.27;42.40;;;;;;;;;;4963061;28;20496;-44
2023/01/07 01:02:29;;;;;;;181.45;42.20;;;;;;;;;;4957354;28;20520;-43
2023/01/07 01:04:56;;;;;;;145.63;41.75;;;;;;;;;;4954511;28;20153;-45
2023/01/07 01:07:23;;;;;;;185.35;45.63;;;;;;;;;;4961411;28;20129;-45
2023/01/07 01:09:49;;;;;;;164.85;46.30;;;;;;;;;;4958107;28;20058;-44
2023/01/07 01:12:16;;;;;;;142.15;44.97;;;;;;;;;;4958140;28;20047;-42
2023/01/07 01:14:42;;;;;;;167.45;43.97;;;;;;;;;;4956251;28;20138;-43
2023/01/07 01:17:09;;;;;;;184.13;50.25;;;;;;;;;;4955288;28;20058;-43
2023/01/07 01:19:35;;;;;;;153.63;44.10;;;;;;;;;;4958157;28;20053;-44
2023/01/07 01:22:02;;;;;;;148.88;43.58;;;;;;;;;;4965502;28;20155;-44
2023/01/07 01:24:28;;;;;;;195.18;46.35;;;;;;;;;;4962016;28;20487;-43
2023/01/07 01:26:55;;;;;;;165.13;48.80;;;;;;;;;;4960579;28;20047;-46
2023/01/07 01:29:21;;;;;;;184.00;48.78;;;;;;;;;;4955142;28;20038;-46
2023/01/07 01:31:49;;;;;;;158.05;44.20;;;;;;;;;;4955831;28;20413;-44
2023/01/07 01:34:15;;;;;;;151.63;44.22;;;;;;;;;;4959482;28;20502;-43
2023/01/07 01:36:42;;;;;;;138.15;43.83;;;;;;;;;;4960536;28;20043;-47
2023/01/07 01:39:08;;;;;;;176.00;49.33;;;;;;;;;;4955631;28;20038;-43
2023/01/07 01:41:35;;;;;;;195.10;48.65;;;;;;;;;;4957409;28;20118;-43
2023/01/07 01:44:21;;;;;;;157.50;45.47;;;;;;;;;;4959093;28;20066;-43
2023/01/07 01:46:49;;;;;;;230.10;52.92;;;;;;;;;;4969283;28;20502;-46
2023/01/07 01:49:27;;;;;;;185.60;50.53;;;;;;;;;;4958469;28;20418;-43
2023/01/07 01:52:13;;;;;;;155.93;45.65;;;;;;;;;;4956855;28;20710;-45
2023/01/07 01:54:42;;;;;;;195.13;50.20;;;;;;;;;;4958549;28;20057;-42
2023/01/07 01:57:09;;;;;;;189.80;45.45;;;;;;;;;;4955798;28;20039;-44
2023/01/07 01:59:38;;;;;;;241.02;52.20;;;;;;;;;;4961092;28;20054;-44
2023/01/07 02:02:08;;;;;;;156.07;41.63;;;;;;;;;;4956247;28;20065;-43
2023/01/07 02:04:35;;;;;;;186.00;47.15;;;;;;;;;;4962091;28;20052;-46
2023/01/07 02:07:08;;;;;;;157.05;43.13;;;;;;;;;;4957402;28;20078;-45
2023/01/07 02:09:38;;;;;;;146.82;42.80;;;;;;;;;;4959948;28;20058;-47
2023/01/07 02:12:26;;;;;;;181.10;45.45;;;;;;;;;;4954057;28;20046;-42
2023/01/07 02:14:58;;;;;;;161.98;42.85;;;;;;;;;;4974830;28;20600;-43
2023/01/07 02:17:33;;;;;;;190.07;43.25;;;;;;;;;;4963783;28;20046;-42
2023/01/07 02:20:14;;;;;;;165.50;38.45;;;;;;;;;;4939502;28;20051;-47
2023/01/07 02:22:53;;;;;;;229.98;47.90;;;;;;;;;;4954198;28;20457;-44
2023/01/07 02:25:25;;;;;;;203.60;40.85;;;;;;;;;;4959283;28;20047;-45
2023/01/07 02:27:58;;;;;;;168.70;41.17;;;;;;;;;;4958493;28;20043;-43
2023/01/07 02:30:46;;;;;;;242.90;46.70;;;;;;;;;;4959476;28;20397;-44
2023/01/07 02:33:20;;;;;;;199.20;44.53;;;;;;;;;;4964618;28;20143;-42
2023/01/07 02:35:59;;;;;;;219.38;40.78;;;;;;;;;;4957860;28;20521;-42
2023/01/07 02:38:33;;;;;;;192.27;41.33;;;;;;;;;;4970585;28;20445;-46
2023/01/07 02:41:19;;;;;;;446.88;56.35;;;;;;;;;;4958442;28;20039;-45
2023/01/07 02:43:57;;;;;;;188.95;40.72;;;;;;;;;;4953819;28;20043;-45
2023/01/07 02:46:30;;;;;;;240.20;43.92;;;;;;;;;;4952578;28;20039;-45
2023/01/07 02:48:58;;;;;;;289.23;46.75;;;;;;;;;;4956533;28;20047;-44
2023/01/07 02:51:34;;;;;;;211.15;41.08;;;;;;;;;;4971757;28;20999;-43
2023/01/07 02:54:02;;;;;;;176.73;40.05;;;;;;;;;;4974924;28;20498;-45
2023/01/07 02:56:47;;;;;;;280.23;46.20;;;;;;;;;;4960765;28;20051;-43
2023/01/07 02:59:23;;;;;;;132.50;33.45;;;;;;;;;;4973572;28;20046;-43
2023/01/07 03:01:55;;;;;;;202.65;41.15;;;;;;;;;;4961883;28;20066;-47
2023/01/07 03:04:39;;;;;;;169.75;36.80;;;;;;;;;;4972047;28;20051;-43
2023/01/07 03:07:14;;;;;;;202.55;41.22;;;;;;;;;;4956721;28;20112;-43
2023/01/07 03:09:41;;;;;;;179.57;38.60;;;;;;;;;;4960696;28;20057;-42
2023/01/07 03:12:12;;;;;;;167.00;38.38;;;;;;;;;;4960161;28;20035;-45
2023/01/07 03:14:48;;;;;;;361.33;49.67;;;;;;;;;;4961024;28;20057;-43
2023/01/07 03:17:19;;;;;;;264.60;42.88;;;;;;;;;;4969068;28;20051;-43
2023/01/07 03:19:49;;;;;;;233.10;41.13;;;;;;;;;;4967664;28;20053;-47
2023/01/07 03:22:17;;;;;;;214.10;40.30;;;;;;;;;;4963374;28;20039;-42
2023/01/07 03:24:45;;;;;;;257.98;43.17;;;;;;;;;;4973353;28;20043;-42
2023/01/07 03:27:13;;;;;;;294.35;47.40;;;;;;;;;;4959662;28;20045;-43
2023/01/07 03:29:39;;;;;;;319.27;49.50;;;;;;;;;;4958159;28;20046;-45
2023/01/07 03:32:16;;;;;;;202.52;37.65;;;;;;;;;;4954918;28;20082;-44
2023/01/07 03:34:44;;;;;;;298.45;42.95;;;;;;;;;;4962109;28;20050;-46
2023/01/07 03:37:19;;;;;;;302.67;48.10;;;;;;;;;;4960036;28;20133;-43
2023/01/07 03:39:46;;;;;;;418.40;54.03;;;;;;;;;;4959257;28;20047;-42
2023/01/07 03:44:59;;;;;;;424.50;51.78;;;;;;;;;;4962077;28;20057;-47
2023/01/07 03:47:28;;;;;;;446.58;54.58;;;;;;;;;;4961429;28;20038;-42
2023/01/07 03:49:55;;;;;;;293.92;42.85;;;;;;;;;;4966950;28;20062;-43
2023/01/07 03:52:21;;;;;;;277.58;43.03;;;;;;;;;;4965229;28;20133;-44
2023/01/07 03:54:48;;;;;;;309.10;45.47;;;;;;;;;;4958665;28;20043;-42
2023/01/07 03:57:14;;;;;;;498.30;53.45;;;;;;;;;;4963951;28;20035;-42
2023/01/07 03:59:41;;;;;;;244.55;40.85;;;;;;;;;;4961091;28;20039;-44
2023/01/07 04:02:08;;;;;;;310.60;45.90;;;;;;;;;;4959396;28;20059;-42
2023/01/07 04:04:34;;;;;;;366.10;49.85;;;;;;;;;;4955121;28;20047;-42
2023/01/07 04:07:03;;;;;;;302.58;42.53;;;;;;;;;;4968865;28;20516;-44
2023/01/07 04:09:30;;;;;;;285.58;43.33;;;;;;;;;;4962731;28;20047;-42
2023/01/07 04:11:56;;;;;;;359.45;47.70;;;;;;;;;;4957773;28;20438;-42
2023/01/07 04:14:23;;;;;;;280.20;42.72;;;;;;;;;;4960186;28;20055;-45
2023/01/07 04:16:50;;;;;;;518.30;60.03;;;;;;;;;;4957084;28;20051;-45
2023/01/07 04:19:17;;;;;;;209.48;36.38;;;;;;;;;;4960086;28;20059;-42
2023/01/07 04:21:44;;;;;;;369.92;49.60;;;;;;;;;;4944457;28;20037;-46
2023/01/07 04:24:11;;;;;;;450.77;56.60;;;;;;;;;;4961218;28;20134;-42
2023/01/07 04:26:38;;;;;;;397.67;52.45;;;;;;;;;;4972269;28;20137;-46
2023/01/07 04:29:06;;;;;;;219.07;41.95;;;;;;;;;;4968526;28;20131;-42
2023/01/07 04:31:32;;;;;;;250.75;41.25;;;;;;;;;;4955298;28;20055;-42
2023/01/07 04:33:59;;;;;;;197.32;35.20;;;;;;;;;;4956914;28;20043;-42
2023/01/07 04:36:25;;;;;;;213.50;35.92;;;;;;;;;;4972801;28;20047;-43
2023/01/07 04:38:52;;;;;;;176.70;32.88;;;;;;;;;;4960196;28;20134;-43
2023/01/07 04:41:19;;;;;;;229.63;37.70;;;;;;;;;;4964839;28;20051;-43
2023/01/07 04:43:45;;;;;;;248.05;38.95;;;;;;;;;;4968322;28;20051;-43
2023/01/07 04:46:12;;;;;;;202.65;33.92;;;;;;;;;;4957794;28;20051;-43
2023/01/07 04:48:38;;;;;;;251.38;39.80;;;;;;;;;;4959399;28;20043;-46
2023/01/07 04:51:05;;;;;;;249.73;37.63;;;;;;;;;;4960888;28;20038;-43
2023/01/07 04:53:32;;;;;;;266.58;40.78;;;;;;;;;;4961557;28;20051;-44
2023/01/07 04:56:00;;;;;;;274.77;41.35;;;;;;;;;;4961004;28;20101;-45
2023/01/07 04:58:27;;;;;;;429.17;50.97;;;;;;;;;;4965305;28;20051;-42
2023/01/07 05:00:57;;;;;;;207.60;34.58;;;;;;;;;;4961694;28;20097;-43
2023/01/07 05:03:25;;;;;;;280.50;40.17;;;;;;;;;;4957763;28;20047;-42
2023/01/07 05:05:51;;;;;;;227.18;37.05;;;;;;;;;;4959844;28;20573;-46
2023/01/07 05:08:19;;;;;;;286.33;41.10;;;;;;;;;;4957717;28;20597;-43
2023/01/07 05:10:50;;;;;;;244.45;37.03;;;;;;;;;;4962785;28;20575;-42
2023/01/07 05:13:18;;;;;;;357.75;45.75;;;;;;;;;;4957206;28;20126;-45
2023/01/07 05:15:45;;;;;;;306.52;41.50;;;;;;;;;;4959690;28;20043;-42
2023/01/07 05:18:12;;;;;;;273.63;41.40;;;;;;;;;;4954867;28;20075;-45
2023/01/07 05:20:39;;;;;;;385.13;47.70;;;;;;;;;;4958454;28;20047;-44
2023/01/07 05:23:06;;;;;;;489.65;49.70;;;;;;;;;;4958838;28;20039;-44
2023/01/07 05:25:33;;;;;;;199.23;35.88;;;;;;;;;;4960290;28;20082;-44
2023/01/07 05:28:00;;;;;;;367.75;44.88;;;;;;;;;;4956104;28;20761;-45
2023/01/07 05:30:29;;;;;;;391.73;45.95;;;;;;;;;;4963023;28;20043;-42
2023/01/07 05:32:56;;;;;;;436.25;51.83;;;;;;;;;;4961840;28;20038;-45
2023/01/07 05:35:23;;;;;;;245.35;37.95;;;;;;;;;;4958736;28;20074;-47
2023/01/07 05:37:50;;;;;;;357.00;44.45;;;;;;;;;;4954313;28;20050;-47
2023/01/07 05:40:17;;;;;;;430.95;51.50;;;;;;;;;;4967032;28;20043;-44
2023/01/07 05:42:44;;;;;;;436.77;47.28;;;;;;;;;;4955860;28;20051;-43
2023/01/07 05:45:10;;;;;;;259.35;39.53;;;;;;;;;;4953753;28;20047;-45
2023/01/07 05:47:37;;;;;;;310.00;42.53;;;;;;;;;;4955370;28;20139;-42
2023/01/07 05:50:03;;;;;;;160.80;32.15;;;;;;;;;;4955112;28;20043;-42
2023/01/07 05:52:30;;;;;;;301.67;42.97;;;;;;;;;;4953770;28;20557;-44
2023/01/07 05:54:56;;;;;;;638.75;62.03;;;;;;;;;;4957217;28;20051;-44
2023/01/07 05:57:23;;;;;;;272.90;37.53;;;;;;;;;;4961891;28;20047;-46
2023/01/07 05:59:49;;;;;;;451.48;50.85;;;;;;;;;;4955706;28;20055;-45
2023/01/07 06:02:16;;;;;;;311.95;43.25;;;;;;;;;;4954326;28;20453;-44
2023/01/07 06:04:43;;;;;;;301.10;41.10;;;;;;;;;;4954494;28;20051;-42
2023/01/07 06:07:09;;;;;;;487.17;50.45;;;;;;;;;;4955499;28;20043;-44
2023/01/07 06:09:36;;;;;;;169.95;34.17;;;;;;;;;;4956800;28;20050;-45
2023/01/07 06:12:02;;;;;;;216.38;35.50;;;;;;;;;;4959073;28;20533;-44
2023/01/07 06:14:29;;;;;;;324.73;44.53;;;;;;;;;;4953627;28;20054;-44
2023/01/07 06:16:55;;;;;;;233.23;36.75;;;;;;;;;;4953520;28;20442;-42
2023/01/07 06:19:22;;;;;;;296.45;42.67;;;;;;;;;;4956811;28;20046;-45
2023/01/07 06:21:48;;;;;;;254.20;37.20;;;;;;;;;;4955345;28;20397;-44
2023/01/07 06:24:15;;;;;;;341.27;45.05;;;;;;;;;;4956747;28;20122;-45
2023/01/07 06:26:41;;;;;;;257.35;37.33;;;;;;;;;;4954869;28;20043;-43
2023/01/07 06:29:09;;;;;;;142.10;30.45;;;;;;;;;;4954397;28;20047;-46
2023/01/07 06:31:35;;;;;;;227.05;37.92;;;;;;;;;;4953107;28;20039;-44
2023/01/07 06:34:02;;;;;;;268.83;42.40;;;;;;;;;;4956335;28;20131;-43
2023/01/07 06:36:28;;;;;;;237.80;36.95;;;;;;;;;;4959533;28;20058;-44
2023/01/07 06:38:54;;;;;;;216.65;38.05;;;;;;;;;;4959454;28;20039;-46
2023/01/07 06:41:21;;;;;;;348.65;46.50;;;;;;;;;;4961313;28;20046;-44
2023/01/07 06:43:47;;;;;;;275.02;39.90;;;;;;;;;;4957968;28;20458;-43
2023/01/07 06:46:14;;;;;;;182.77;35.85;;;;;;;;;;4958710;28;20054;-43
2023/01/07 06:48:40;;;;;;;183.98;33.90;;;;;;;;;;4959382;28;20042;-47
2023/01/07 06:51:07;;;;;;;230.93;38.40;;;;;;;;;;4965363;28;20037;-43
2023/01/07 06:53:33;;;;;;;195.20;34.78;;;;;;;;;;4960322;28;20042;-43
2023/01/07 06:56:00;;;;;;;163.80;30.30;;;;;;;;;;4960678;28;20050;-45
2023/01/07 06:58:26;;;;;;;171.43;33.03;;;;;;;;;;4956186;28;20050;-43
2023/01/07 07:00:53;;;;;;;175.35;33.58;;;;;;;;;;4958572;28;20069;-42
2023/01/07 07:03:19;;;;;;;174.65;33.72;;;;;;;;;;4959277;28;20043;-43
2023/01/07 07:05:46;;;;;;;172.10;32.85;;;;;;;;;;4958537;28;20127;-43
2023/01/07 07:08:12;;;;;;;136.10;30.20;;;;;;;;;;4961606;28;20564;-45
2023/01/07 07:10:39;;;;;;;136.48;31.23;;;;;;;;;;4956104;28;20106;-48
2023/01/07 07:13:05;;;;;;;99.07;26.75;;;;;;;;;;4959935;28;20102;-42
2023/01/07 07:15:32;;;;;;;133.20;28.15;;;;;;;;;;4960337;28;20046;-42
2023/01/07 07:17:58;;;;;;;147.65;33.63;;;;;;;;;;4959430;28;20051;-43
2023/01/07 07:20:24;;;;;;;168.23;34.22;;;;;;;;;;4957046;28;20042;-44
2023/01/07 07:22:51;;;;;;;149.32;31.95;;;;;;;;;;4958100;28;20494;-42
2023/01/07 07:25:17;;;;;;;143.93;34.05;;;;;;;;;;4957631;28;20074;-44
2023/01/07 07:27:45;;;;;;;129.13;30.00;;;;;;;;;;4959226;28;20520;-41
2023/01/07 07:30:12;;;;;;;133.63;29.77;;;;;;;;;;4958034;28;20039;-45
2023/01/07 07:32:38;;;;;;;161.13;33.38;;;;;;;;;;4956702;28;20051;-42
2023/01/07 07:35:05;;;;;;;126.30;31.42;;;;;;;;;;4959778;28;20027;-42
2023/01/07 07:37:32;;;;;;;165.13;34.22;;;;;;;;;;4955582;28;20061;-44
2023/01/07 07:39:58;;;;;;;120.43;31.08;;;;;;;;;;4959708;28;20050;-42
2023/01/07 07:42:24;;;;;;;156.70;33.33;;;;;;;;;;4960718;28;20032;-43
2023/01/07 07:44:51;;;;;;;174.18;37.95;;;;;;;;;;4960846;28;20682;-42
2023/01/07 07:47:17;;;;;;;146.98;35.97;;;;;;;;;;4962543;28;20043;-45
2023/01/07 07:49:44;;;;;;;137.55;34.38;;;;;;;;;;4961942;28;20425;-43
2023/01/07 07:52:11;;;;;;;164.05;37.25;;;;;;;;;;4957817;28;20516;-43
2023/01/07 07:54:37;;;;;;;127.88;32.95;;;;;;;;;;4962911;28;20058;-42
2023/01/07 07:57:04;;;;;;;123.30;33.80;;;;;;;;;;4958608;28;20047;-42
2023/01/07 07:59:30;;;;;;;137.68;34.55;;;;;;;;;;4956628;28;20038;-42
2023/01/07 08:01:57;;;;;;;210.90;41.15;;;;;;;;;;4957635;28;20098;-44
2023/01/07 08:04:24;;;;;;;153.32;36.47;;;;;;;;;;4957407;28;20053;-42
2023/01/07 08:06:50;;;;;;;152.27;34.28;;;;;;;;;;4956933;28;20039;-44
2023/01/07 08:09:16;;;;;;;201.15;51.97;;;;;;;;;;4955825;28;20046;-43
2023/01/07 08:11:43;;;;;;;290.58;78.95;;;;;;;;;;4955726;28;20035;-41
2023/01/07 08:14:09;;;;;;;188.18;55.35;;;;;;;;;;4957496;28;20078;-42
2023/01/07 08:16:36;;;;;;;175.90;40.88;;;;;;;;;;4953429;28;20051;-42
2023/01/07 08:19:03;;;;;;;141.32;40.20;;;;;;;;;;4956781;28;20074;-47
2023/01/07 08:21:29;;;;;;;151.90;35.22;;;;;;;;;;4958357;28;20409;-43
2023/01/07 08:23:56;;;;;;;140.90;35.85;;;;;;;;;;4958064;28;20045;-43
2023/01/07 08:26:23;;;;;;;161.98;41.45;;;;;;;;;;4956501;28;20085;-42
2023/01/07 08:28:49;;;;;;;151.45;42.78;;;;;;;;;;4955224;28;20054;-42
2023/01/07 08:31:16;;;;;;;166.90;49.05;;;;;;;;;;4957570;28;20051;-43
2023/01/07 08:33:43;;;;;;;125.75;38.20;;;;;;;;;;4958586;28;20050;-42
2023/01/07 08:36:09;;;;;;;130.80;38.42;;;;;;;;;;4957789;28;20409;-45
2023/01/07 08:38:49;;;;;;;159.48;38.30;;;;;;;;;;4956950;28;20067;-44
2023/01/07 08:41:15;;;;;;;100.80;33.08;;;;;;;;;;4961857;28;20054;-42
2023/01/07 08:43:43;;;;;;;113.47;28.77;;;;;;;;;;4966096;28;20420;-42
2023/01/07 08:46:10;;;;;;;124.93;29.00;;;;;;;;;;4965992;28;20092;-42
2023/01/07 08:48:39;;;;;;;89.13;26.35;;;;;;;;;;4963853;28;20078;-42
2023/01/07 08:51:05;;;;;;;110.55;31.05;;;;;;;;;;4966271;28;20490;-43
2023/01/07 08:53:32;;;;;;;139.63;35.35;;;;;;;;;;4964812;28;20516;-43
2023/01/07 08:55:59;;;;;;;156.75;35.10;;;;;;;;;;4955299;28;20045;-44
2023/01/07 08:58:25;;;;;;;158.98;33.25;;;;;;;;;;4955180;28;20047;-42
2023/01/07 09:00:52;;;;;;;117.93;29.00;;;;;;;;;;4955400;28;20036;-43
2023/01/07 09:03:19;;;;;;;134.13;31.58;;;;;;;;;;4958616;28;20051;-43
2023/01/07 09:05:45;;;;;;;163.65;34.05;;;;;;;;;;4957591;28;20546;-43
2023/01/07 09:08:12;;;;;;;116.72;30.60;;;;;;;;;;4954888;28;20074;-45
2023/01/07 09:10:38;;;;;;;88.85;26.48;;;;;;;;;;4961031;28;20031;-43
2023/01/07 09:13:05;;;;;;;155.32;31.77;;;;;;;;;;4957422;28;20043;-43
2023/01/07 09:15:32;;;;;;;102.90;28.25;;;;;;;;;;4957410;28;20075;-42
2023/01/07 09:17:58;;;;;;;129.75;29.73;;;;;;;;;;4957699;28;20039;-44
2023/01/07 09:20:24;;;;;;;175.23;32.42;;;;;;;;;;4959775;28;20054;-45
2023/01/07 09:22:51;;;;;;;129.05;29.65;;;;;;;;;;4955245;28;20498;-43
2023/01/07 09:25:17;;;;;;;128.27;33.42;;;;;;;;;;4957778;28;20050;-42
2023/01/07 09:27:44;;;;;;;133.50;30.02;;;;;;;;;;4956354;28;20050;-42
2023/01/07 09:30:11;;;;;;;134.95;30.67;;;;;;;;;;4962671;28;20421;-42
2023/01/07 09:32:37;;;;;;;192.63;35.38;;;;;;;;;;4967904;28;20053;-43
2023/01/07 09:35:04;;;;;;;151.65;32.90;;;;;;;;;;4967694;28;20077;-44
2023/01/07 09:37:31;;;;;;;121.15;30.77;;;;;;;;;;4956860;28;20054;-43
2023/01/07 09:39:59;;;;;;;121.95;32.33;;;;;;;;;;4955409;28;20130;-42
2023/01/07 09:42:26;;;;;;;162.35;32.33;;;;;;;;;;4957301;28;20039;-45
2023/01/07 09:44:55;;;;;;;162.20;33.10;;;;;;;;;;4956408;28;20061;-42
2023/01/07 09:47:24;;;;;;;149.57;32.75;;;;;;;;;;4954835;28;20046;-44
2023/01/07 09:49:52;;;;;;;154.27;32.50;;;;;;;;;;4958783;28;20042;-44
2023/01/07 09:52:24;;;;;;;135.35;31.67;;;;;;;;;;4956631;28;20138;-44
2023/01/07 09:54:52;;;;;;;158.02;32.35;;;;;;;;;;4971461;28;20102;-42
2023/01/07 09:57:19;;;;;;;170.60;36.47;;;;;;;;;;4956117;28;20039;-42
2023/01/07 09:59:45;;;;;;;173.73;36.95;;;;;;;;;;4955541;28;20050;-42
2023/01/07 10:02:24;;;;;;;206.82;48.25;;;;;;;;;;4953769;28;20537;-43
2023/01/07 10:04:57;;;;;;;144.77;35.67;;;;;;;;;;4953685;28;20061;-43
2023/01/07 10:07:24;;;;;;;;;;;;;;;;;;4953997;28;20044;-42
2023/01/07 10:10:09;;;;;;;185.27;35.67;;;;;;;;;;4957493;28;19944;-43
2023/01/07 10:12:59;;;;;;;168.98;37.55;;;;;;;;;;4961359;28;20035;-44
2023/01/07 10:15:34;;;;;;;157.50;33.50;;;;;;;;;;4964124;28;20043;-44
2023/01/07 10:18:03;;;;;;;131.27;33.47;;;;;;;;;;4962919;28;20042;-43
2023/01/07 10:20:32;;;;;;;193.27;39.13;;;;;;;;;;4959212;28;20057;-43
2023/01/07 10:23:09;;;;;;;148.13;36.10;;;;;;;;;;4957456;28;20114;-43
2023/01/07 10:25:42;;;;;;;164.95;36.38;;;;;;;;;;4958268;28;20039;-43
2023/01/07 10:28:12;;;;;;;154.88;35.03;;;;;;;;;;4961187;28;20067;-43
2023/01/07 10:30:41;;;;;;;167.65;38.58;;;;;;;;;;4964254;28;20075;-45
2023/01/07 10:33:29;;;;;;;135.52;36.10;;;;;;;;;;4959942;28;20065;-42
2023/01/07 10:36:13;;;;;;;169.25;38.53;;;;;;;;;;4960077;28;20093;-43
2023/01/07 10:38:39;;;;;;;;;;;;;;;;;;4961248;28;20051;-42
2023/01/07 10:41:10;;;;;;;114.78;32.58;;;;;;;;;;4957604;28;19922;-44
2023/01/07 10:43:49;;;;;;;165.02;38.35;;;;;;;;;;4958736;28;20764;-43
2023/01/07 10:46:34;;;;;;;132.82;35.15;;;;;;;;;;4959374;28;20049;-45
2023/01/07 10:49:21;;;;;;;162.02;35.75;;;;;;;;;;4958818;28;20050;-44
2023/01/07 10:51:53;;;;;;;167.27;35.63;;;;;;;;;;4960388;28;20401;-43
2023/01/07 10:54:34;;;;;;;116.50;31.40;;;;;;;;;;4959380;28;20049;-44
2023/01/07 10:57:21;;;;;;;156.63;37.30;;;;;;;;;;4964282;28;20065;-46
2023/01/07 10:59:49;;;;;;;154.18;36.05;;;;;;;;;;4960742;28;20118;-46
2023/01/07 11:02:16;;;;;;;200.18;40.40;;;;;;;;;;4960513;28;20812;-42
2023/01/07 11:04:43;;;;;;;107.47;34.20;;;;;;;;;;4955545;28;20035;-43
2023/01/07 11:07:28;;;;;;;161.05;36.58;;;;;;;;;;4958884;28;20120;-44
2023/01/07 11:09:55;;;;;;;222.60;42.72;;;;;;;;;;4958183;28;20035;-42
2023/01/07 11:12:31;;;;;;;167.60;39.70;;;;;;;;;;4958389;28;20090;-43
2023/01/07 11:14:59;;;;;;;199.43;40.92;;;;;;;;;;4958152;28;20081;-43
2023/01/07 11:17:40;;;;;;;115.05;31.75;;;;;;;;;;4956084;28;20108;-42
2023/01/07 11:20:07;;;;;;;149.00;39.65;;;;;;;;;;4954313;28;20126;-44
2023/01/07 11:22:35;;;;;;;162.43;41.75;;;;;;;;;;4957576;28;20062;-43
2023/01/07 11:25:24;;;;;;;162.50;37.97;;;;;;;;;;4956991;28;20043;-42
2023/01/07 11:27:51;;;;;;;171.40;40.90;;;;;;;;;;4958299;28;20045;-42
2023/01/07 11:30:23;;;;;;;135.07;39.33;;;;;;;;;;4958909;28;20049;-42
2023/01/07 11:32:57;;;;;;;191.82;43.17;;;;;;;;;;4956540;28;20051;-43
2023/01/07 11:35:26;;;;;;;150.75;39.72;;;;;;;;;;4956987;28;20591;-44
2023/01/07 11:37:53;;;;;;;148.90;44.00;;;;;;;;;;4956224;28;20050;-42
2023/01/07 11:40:27;;;;;;;174.27;43.08;;;;;;;;;;4956599;28;20098;-44
2023/01/07 11:43:00;;;;;;;113.78;37.75;;;;;;;;;;4958303;28;20118;-43
2023/01/07 11:45:26;;;;;;;162.38;42.60;;;;;;;;;;4958722;28;20051;-43
2023/01/07 11:48:05;;;;;;;157.23;43.72;;;;;;;;;;4956010;28;20417;-42
2023/01/07 11:50:36;;;;;;;168.07;45.97;;;;;;;;;;4979108;28;20055;-42
2023/01/07 11:53:12;;;;;;;131.20;39.90;;;;;;;;;;4955226;28;20413;-42
2023/01/07 11:55:39;;;;;;;134.15;39.45;;;;;;;;;;4956061;28;20047;-44
2023/01/07 11:58:16;;;;;;;119.13;39.47;;;;;;;;;;4958778;28;20043;-43
2023/01/07 12:01:08;;;;;;;148.85;50.22;;;;;;;;;;4958475;28;20049;-45
2023/01/07 12:03:39;;;;;;;132.18;41.97;;;;;;;;;;4921020;28;1054996;-43
2023/01/07 12:06:08;;;;;;;132.88;40.40;;;;;;;;;;4962506;28;20066;-47
2023/01/07 12:08:34;;;;;;;141.07;40.22;;;;;;;;;;4956824;28;20051;-42
2023/01/07 12:11:08;;;;;;;114.60;37.80;;;;;;;;;;4956570;28;20051;-45
2023/01/07 12:13:35;;;;;;;115.78;37.80;;;;;;;;;;4956439;28;20713;-43
2023/01/07 12:16:03;;;;;;;94.53;34.22;;;;;;;;;;4958574;28;20051;-44
2023/01/07 12:18:40;;;;;;;143.50;40.22;;;;;;;;;;4958495;28;20043;-46
2023/01/07 12:21:19;;;;;;;117.93;36.92;;;;;;;;;;4958534;28;20039;-45
2023/01/07 12:23:50;;;;;;;91.35;31.33;;;;;;;;;;4960214;28;20050;-43
2023/01/07 12:26:19;;;;;;;110.38;32.03;;;;;;;;;;4972242;28;20035;-41
2023/01/07 12:28:46;;;;;;;87.18;33.35;;;;;;;;;;4957707;28;20065;-42
2023/01/07 12:31:12;;;;;;;79.22;31.00;;;;;;;;;;4961432;28;20448;-43
2023/01/07 12:33:42;;;;;;;98.90;32.92;;;;;;;;;;4960459;28;20113;-43
2023/01/07 12:36:12;;;;;;;98.60;32.78;;;;;;;;;;4961912;28;20134;-45
2023/01/07 12:38:51;;;;;;;86.22;28.45;;;;;;;;;;4955129;28;20054;-42
2023/01/07 12:41:30;;;;;;;135.35;33.72;;;;;;;;;;4954770;28;20109;-43
2023/01/07 12:44:01;;;;;;;101.05;30.17;;;;;;;;;;4954113;28;20158;-45
2023/01/07 12:46:39;;;;;;;122.57;31.92;;;;;;;;;;4956113;28;20055;-44
2023/01/07 12:49:09;;;;;;;74.35;29.65;;;;;;;;;;4959451;28;20035;-44
2023/01/07 12:51:36;;;;;;;109.40;31.13;;;;;;;;;;4960007;28;20391;-42
2023/01/07 12:54:09;;;;;;;112.15;29.77;;;;;;;;;;4958122;28;20047;-42
2023/01/07 12:56:45;;;;;;;122.72;34.50;;;;;;;;;;4958287;28;20577;-42
2023/01/07 12:59:35;;;;;;;102.85;31.67;;;;;;;;;;4966236;28;20417;-42
2023/01/07 13:02:18;;;;;;;130.95;33.88;;;;;;;;;;4952780;28;20057;-42
2023/01/07 13:04:52;;;;;;;87.10;33.03;;;;;;;;;;4958220;28;20035;-41
2023/01/07 13:07:22;;;;;;;75.97;29.40;;;;;;;;;;4960225;28;20114;-42
2023/01/07 13:10:00;;;;;;;92.22;31.08;;;;;;;;;;4960115;28;20123;-43
2023/01/07 13:12:41;;;;;;;90.32;28.95;;;;;;;;;;4958420;28;20102;-43
2023/01/07 13:15:08;;;;;;;72.00;27.90;;;;;;;;;;4961462;28;20045;-43
2023/01/07 13:17:35;;;;;;;107.60;31.60;;;;;;;;;;4959322;28;20066;-42
2023/01/07 13:20:01;;;;;;;107.88;33.55;;;;;;;;;;4954916;28;20058;-41
2023/01/07 13:22:33;;;;;;;106.63;32.17;;;;;;;;;;4955846;28;20102;-43
2023/01/07 13:25:11;;;;;;;105.65;33.45;;;;;;;;;;4957601;28;20043;-41
2023/01/07 13:27:58;;;;;;;110.15;31.88;;;;;;;;;;4966580;28;20376;-43
2023/01/07 13:30:36;;;;;;;117.60;32.50;;;;;;;;;;4927236;29;20052;-43
2023/01/07 13:33:06;;;;;;;105.47;29.40;;;;;;;;;;4926266;29;20059;-45
2023/01/07 13:35:40;;;;;;;88.78;28.67;;;;;;;;;;4926943;29;20541;-42
2023/01/07 13:38:06;;;;;;;87.80;29.65;;;;;;;;;;4928195;29;20055;-42
2023/01/07 13:40:47;;;;;;;96.43;29.75;;;;;;;;;;4926712;29;20560;-42
2023/01/07 13:43:14;;;;;;;101.72;32.92;;;;;;;;;;4925319;29;20522;-41
2023/01/07 13:45:42;;;;;;;85.45;30.35;;;;;;;;;;4926068;29;20059;-42
2023/01/07 13:48:20;;;;;;;93.93;29.40;;;;;;;;;;4923045;29;20048;-42
2023/01/07 13:51:03;;;;;;;100.80;29.80;;;;;;;;;;4923347;29;20052;-43
2023/01/07 13:53:30;;;;;;;112.32;32.17;;;;;;;;;;4919757;29;20056;-42
2023/01/07 13:56:15;;;;;;;96.47;29.25;;;;;;;;;;4919510;29;20048;-44
2023/01/07 13:58:42;;;;;;;80.95;30.10;;;;;;;;;;4923067;29;20080;-42
2023/01/07 14:01:09;;;;;;;97.30;28.77;;;;;;;;;;4922448;29;20056;-41
2023/01/07 14:03:39;;;;;;;104.03;32.83;;;;;;;;;;4919375;29;20090;-42
2023/01/07 14:06:21;;;;;;;95.35;31.55;;;;;;;;;;4921251;29;20061;-42
2023/01/07 14:08:51;;;;;;;132.75;42.20;;;;;;;;;;4955985;28;20078;-42
2023/01/07 14:11:19;;;;;;;100.38;41.85;;;;;;;;;;4961631;28;20063;-43
2023/01/07 14:14:09;;;;;;;123.47;44.58;;;;;;;;;;4952924;28;20031;-42
2023/01/07 14:16:43;;;;;;;126.43;43.95;;;;;;;;;;4922031;29;20124;-44
2023/01/07 14:19:17;;;;;;;121.75;42.70;;;;;;;;;;4911149;29;20112;-42
2023/01/07 14:21:49;;;;;;;120.65;41.17;;;;;;;;;;4926118;29;20063;-45
2023/01/07 14:24:21;;;;;;;159.73;45.38;;;;;;;;;;4925993;29;20087;-44
2023/01/07 14:27:00;;;;;;;161.45;47.83;;;;;;;;;;4926804;29;20040;-45